| Date | Time | Temp. (oF) | Dew Point (oF) | Rel. Hum. (%) | Press. (in.) | Wind Dir. | Wind Speed (mph) | Hourly Rainfall (in.) |
|
|---|---|---|---|---|---|---|---|---|---|
| 1 | 08/05 | 00:00 | 78 | 75 | 93 | 30.16 | S | 4 | 0.00 |
| 2 | 08/04 | 23:00 | 77 | 76 | 98 | 30.17 | SSE | 2 | 0.00 |
| 3 | 08/04 | 22:00 | 77 | 75 | 96 | 30.17 | SE | 4 | 0.00 |
| 4 | 08/04 | 21:00 | 78 | 75 | 91 | 30.14 | SSE | 3 | 0.00 |
| 5 | 08/04 | 20:00 | 81 | 76 | 86 | 30.13 | SSE | 2 | 0.00 |
| 6 | 08/04 | 19:00 | 83 | 76 | 81 | 30.12 | SE | 6 | 0.00 |
| 7 | 08/04 | 18:00 | 86 | 74 | 69 | 30.12 | SE | 9 | 0.00 |
| 8 | 08/04 | 17:00 | 86 | 77 | 75 | 30.14 | ESE | 4 | 0.00 |
| 9 | 08/04 | 16:00 | 83 | 73 | 74 | 30.16 | SW | 4 | 0.00 |
| 10 | 08/04 | 15:00 | 84 | 75 | 75 | 30.15 | ESE | 3 | 0.00 |
| 11 | 08/04 | 14:00 | 88 | 75 | 66 | 30.14 | SW | 7 | 0.00 |
| 12 | 08/04 | 13:00 | 88 | 76 | 69 | 30.16 | SSE | 4 | 0.00 |
| 13 | 08/04 | 12:00 | 86 | 77 | 77 | 30.18 | SE | 5 | 0.00 |
| 14 | 08/04 | 11:00 | 83 | 79 | 88 | 30.19 | SSW | 2 | 0.00 |
| 15 | 08/04 | 10:00 | 80 | 78 | 95 | 30.19 | S | 6 | 0.00 |
| 16 | 08/04 | 09:00 | 79 | 78 | 99 | 30.18 | SSE | 7 | 0.00 |
| 17 | 08/04 | 08:00 | 76 | 76 | 100 | 30.18 | E | 0 | 0.00 |
| 18 | 08/04 | 07:00 | 72 | 72 | 100 | 30.16 | SE | 1 | 0.00 |
| 19 | 08/04 | 06:00 | 71 | 71 | 100 | 30.15 | E | 1 | 0.00 |
| 20 | 08/04 | 05:00 | 71 | 71 | 100 | 30.14 | ENE | 2 | 0.00 |
| 21 | 08/04 | 04:00 | 71 | 71 | 100 | 30.13 | ENE | 2 | 0.00 |
| 22 | 08/04 | 03:00 | 71 | 71 | 100 | 30.11 | E | 0 | 0.00 |
| 23 | 08/04 | 02:00 | 71 | 71 | 100 | 30.11 | ENE | 0 | 0.00 |
| 24 | 08/04 | 01:00 | 72 | 72 | 100 | 30.11 | ESE | 0 | 0.00 |